createdAt,value
2023-03-05T00:01:07.762Z,5.68
2023-03-05T00:03:35.443Z,8.85
2023-03-05T00:06:02.097Z,11.23
2023-03-05T00:08:29.164Z,6.68
2023-03-05T00:11:01.275Z,4.97
2023-03-05T00:13:28.710Z,6.90
2023-03-05T00:15:55.425Z,4.95
2023-03-05T00:18:22.540Z,5.60
2023-03-05T00:20:49.525Z,11.18
2023-03-05T00:23:16.321Z,11.10
2023-03-05T00:25:42.977Z,7.80
2023-03-05T00:28:09.733Z,9.00
2023-03-05T00:30:36.184Z,7.22
2023-03-05T00:33:02.707Z,4.57
2023-03-05T00:35:29.505Z,4.75
2023-03-05T00:37:55.979Z,8.98
2023-03-05T00:40:22.572Z,7.20
2023-03-05T00:42:49.032Z,11.20
2023-03-05T00:45:23.066Z,8.35
2023-03-05T00:47:49.456Z,7.38
2023-03-05T00:50:15.945Z,11.77
2023-03-05T00:52:42.484Z,6.32
2023-03-05T00:55:09.221Z,9.73
2023-03-05T00:57:35.612Z,7.40
2023-03-05T01:00:02.256Z,6.22
2023-03-05T01:02:28.670Z,5.40
2023-03-05T01:04:55.383Z,7.95
2023-03-05T01:07:21.929Z,11.52
2023-03-05T01:09:49.572Z,6.82
2023-03-05T01:12:20.550Z,4.38
2023-03-05T01:14:47.115Z,6.68
2023-03-05T01:17:13.682Z,3.75
2023-03-05T01:19:40.110Z,7.10
2023-03-05T01:22:06.750Z,7.28
2023-03-05T01:24:33.223Z,7.32
2023-03-05T01:27:00.194Z,3.83
2023-03-05T01:29:27.197Z,4.57
2023-03-05T01:31:53.734Z,3.67
2023-03-05T01:34:21.365Z,7.88
2023-03-05T01:36:50.753Z,5.82
2023-03-05T01:39:17.447Z,8.52
2023-03-05T01:41:43.916Z,10.10
2023-03-05T01:44:31.590Z,5.65
2023-03-05T01:46:58.040Z,5.38
2023-03-05T01:49:38.403Z,3.42
2023-03-05T01:52:11.718Z,9.80
2023-03-05T01:54:47.260Z,8.40
2023-03-05T01:57:20.690Z,6.80
2023-03-05T01:59:50.354Z,6.80
2023-03-05T02:02:18.793Z,6.38
2023-03-05T02:04:55.828Z,5.63
2023-03-05T02:07:22.915Z,13.65
2023-03-05T02:09:49.430Z,10.18
2023-03-05T02:12:16.434Z,4.65
2023-03-05T02:14:46.911Z,6.75
2023-03-05T02:17:13.623Z,7.05
2023-03-05T02:19:52.508Z,8.30
2023-03-05T02:22:21.431Z,3.88
2023-03-05T02:24:47.945Z,7.28
2023-03-05T02:27:15.062Z,5.93
2023-03-05T02:29:45.531Z,4.35
2023-03-05T02:32:13.184Z,5.05
2023-03-05T02:34:39.922Z,6.93
2023-03-05T02:37:09.149Z,4.65
2023-03-05T02:39:39.824Z,4.97
2023-03-05T02:42:06.846Z,6.05
2023-03-05T02:44:33.743Z,6.55
2023-03-05T02:47:00.294Z,6.68
2023-03-05T02:49:27.209Z,4.63
2023-03-05T02:51:53.796Z,3.63
2023-03-05T02:54:20.588Z,12.07
2023-03-05T02:56:46.997Z,10.98
2023-03-05T02:59:13.399Z,3.78
2023-03-05T03:01:39.901Z,4.38
2023-03-05T03:04:06.531Z,9.77
2023-03-05T03:06:33.007Z,8.80
2023-03-05T03:08:59.405Z,6.55
2023-03-05T03:11:25.878Z,6.40
2023-03-05T03:13:52.319Z,6.03
2023-03-05T03:16:18.838Z,4.47
2023-03-05T03:18:49.029Z,4.70
2023-03-05T03:21:20.895Z,2.80
2023-03-05T03:23:47.402Z,3.70
2023-03-05T03:26:13.801Z,5.68
2023-03-05T03:28:40.305Z,4.72
2023-03-05T03:31:07.129Z,5.88
2023-03-05T03:33:33.590Z,3.05
2023-03-05T03:36:00.616Z,3.67
2023-03-05T03:38:27.063Z,2.75
2023-03-05T03:40:53.519Z,6.03
2023-03-05T03:43:19.943Z,4.07
2023-03-05T03:45:46.429Z,2.95
2023-03-05T03:48:12.852Z,2.80
2023-03-05T03:50:40.773Z,5.25
2023-03-05T03:53:07.526Z,4.90
2023-03-05T03:55:34.976Z,2.55
2023-03-05T03:58:03.792Z,6.03
2023-03-05T04:00:30.566Z,2.60
2023-03-05T04:02:56.978Z,4.55
2023-03-05T04:05:23.653Z,4.75
2023-03-05T04:07:50.077Z,3.17
2023-03-05T04:10:16.706Z,4.50
2023-03-05T04:12:43.590Z,4.72
2023-03-05T04:15:10.835Z,4.95
2023-03-05T04:17:37.319Z,5.40
2023-03-05T04:20:06.164Z,3.65
2023-03-05T04:22:32.634Z,3.60
2023-03-05T04:25:00.891Z,5.60
2023-03-05T04:27:27.290Z,5.18
2023-03-05T04:29:53.770Z,9.27
2023-03-05T04:32:23.233Z,5.78
2023-03-05T04:34:49.768Z,7.22
2023-03-05T04:37:16.279Z,4.55
2023-03-05T04:39:42.696Z,5.95
2023-03-05T04:42:10.510Z,5.72
2023-03-05T04:44:38.694Z,7.10
2023-03-05T04:47:05.448Z,8.65
2023-03-05T04:49:31.852Z,3.97
2023-03-05T04:51:58.796Z,5.10
2023-03-05T04:54:30.190Z,5.25
2023-03-05T04:56:56.695Z,4.13
2023-03-05T04:59:23.172Z,3.10
2023-03-05T05:01:49.640Z,7.85
2023-03-05T05:04:16.144Z,7.05
2023-03-05T05:06:43.120Z,7.88
2023-03-05T05:09:09.577Z,5.20
2023-03-05T05:11:36.001Z,6.13
2023-03-05T05:14:02.562Z,2.55
2023-03-05T05:16:29.023Z,5.45
2023-03-05T05:18:55.473Z,4.18
2023-03-05T05:21:22.241Z,5.25
2023-03-05T05:23:48.697Z,7.18
2023-03-05T05:26:15.358Z,5.35
2023-03-05T05:28:43.584Z,4.22
2023-03-05T05:31:14.552Z,5.53
2023-03-05T05:33:41.765Z,6.57
2023-03-05T05:36:11.309Z,4.35
2023-03-05T05:38:37.758Z,4.95
2023-03-05T05:41:10.333Z,4.78
2023-03-05T05:43:37.969Z,6.20
2023-03-05T05:46:07.013Z,6.60
2023-03-05T05:48:35.281Z,3.70
2023-03-05T05:51:10.118Z,2.78
2023-03-05T05:53:37.642Z,5.05
2023-03-05T05:56:05.755Z,6.60
2023-03-05T05:58:32.167Z,11.48
2023-03-05T06:00:58.565Z,6.20
2023-03-05T06:03:25.101Z,7.32
2023-03-05T06:05:54.178Z,5.53
2023-03-05T06:08:20.593Z,3.80
2023-03-05T06:10:54.274Z,6.93
2023-03-05T06:15:56.732Z,4.65
2023-03-05T06:18:23.406Z,3.38
2023-03-05T06:20:57.274Z,4.93
2023-03-05T06:23:24.438Z,3.00
2023-03-05T06:25:51.135Z,3.72
2023-03-05T06:28:18.969Z,2.97
2023-03-05T06:30:45.489Z,4.13
2023-03-05T06:33:12.220Z,5.22
2023-03-05T06:35:42.195Z,4.22
2023-03-05T06:38:09.468Z,3.25
2023-03-05T06:40:39.183Z,3.13
2023-03-05T06:43:05.784Z,4.38
2023-03-05T06:45:32.184Z,2.65
2023-03-05T06:47:58.604Z,3.55
2023-03-05T06:50:25.016Z,2.10
2023-03-05T06:52:51.506Z,2.08
2023-03-05T06:55:18.843Z,1.77
2023-03-05T06:57:45.395Z,4.75
2023-03-05T07:00:12.574Z,3.45
2023-03-05T07:02:39.083Z,2.53
2023-03-05T07:05:07.573Z,5.15
2023-03-05T07:07:34.939Z,4.07
2023-03-05T07:10:01.864Z,3.40
2023-03-05T07:12:28.335Z,4.32
2023-03-05T07:14:54.779Z,5.07
2023-03-05T07:17:21.220Z,3.05
2023-03-05T07:19:47.636Z,3.50
2023-03-05T07:22:14.088Z,2.85
2023-03-05T07:24:40.533Z,3.60
2023-03-05T07:27:06.971Z,3.50
2023-03-05T07:29:33.356Z,3.42
2023-03-05T07:32:01.677Z,3.17
2023-03-05T07:34:32.278Z,3.45
2023-03-05T07:36:59.080Z,4.68
2023-03-05T07:39:25.730Z,5.88
2023-03-05T07:41:53.202Z,6.90
2023-03-05T07:44:20.402Z,4.75
2023-03-05T07:46:47.129Z,6.50
2023-03-05T07:49:13.648Z,4.75
2023-03-05T07:51:40.796Z,4.18
2023-03-05T07:54:07.751Z,3.95
2023-03-05T07:56:35.831Z,6.18
2023-03-05T07:59:06.329Z,4.25
2023-03-05T08:01:36.409Z,2.78
2023-03-05T08:04:04.405Z,5.75
2023-03-05T08:06:33.197Z,8.75
2023-03-05T08:09:00.461Z,6.28
2023-03-05T08:11:28.555Z,8.52
2023-03-05T08:13:55.569Z,4.10
2023-03-05T08:16:22.282Z,4.88
2023-03-05T08:18:48.952Z,8.27
2023-03-05T08:21:29.605Z,2.65
2023-03-05T08:23:57.708Z,3.00
2023-03-05T08:26:26.713Z,2.47
2023-03-05T08:28:53.699Z,6.70
2023-03-05T08:31:23.732Z,6.25
2023-03-05T08:33:51.962Z,4.88
2023-03-05T08:36:18.916Z,5.78
2023-03-05T08:38:46.863Z,4.00
2023-03-05T08:41:13.347Z,6.63
2023-03-05T08:43:44.015Z,6.13
2023-03-05T08:46:12.373Z,18.90
2023-03-05T08:48:39.493Z,5.50
2023-03-05T08:51:08.430Z,4.90
2023-03-05T08:53:35.155Z,2.80
2023-03-05T08:56:01.751Z,9.05
2023-03-05T08:58:29.336Z,3.97
2023-03-05T09:00:56.651Z,2.60
2023-03-05T09:03:23.211Z,1.58
2023-03-05T09:05:49.801Z,5.43
2023-03-05T09:08:16.249Z,2.15
2023-03-05T09:10:50.584Z,5.63
2023-03-05T09:13:17.269Z,3.42
2023-03-05T09:15:44.313Z,3.70
2023-03-05T09:18:10.809Z,2.67
2023-03-05T09:20:38.363Z,6.55
2023-03-05T09:23:05.208Z,6.75
2023-03-05T09:25:31.751Z,4.60
2023-03-05T09:27:58.659Z,6.07
2023-03-05T09:30:25.216Z,5.18
2023-03-05T09:32:51.914Z,6.82
2023-03-05T09:35:18.456Z,3.33
2023-03-05T09:37:44.909Z,1.70
2023-03-05T09:40:19.583Z,9.35
2023-03-05T09:43:23.275Z,5.00
2023-03-05T09:46:04.358Z,8.07
2023-03-05T09:48:47.593Z,4.50
2023-03-05T09:51:22.087Z,2.75
2023-03-05T09:54:03.035Z,2.47
2023-03-05T09:56:42.714Z,2.35
2023-03-05T09:59:25.530Z,7.45
2023-03-05T10:02:03.850Z,8.82
2023-03-05T10:04:45.763Z,4.93
2023-03-05T10:07:30.077Z,2.75
2023-03-05T10:10:00.420Z,4.00
2023-03-05T10:12:42.384Z,2.33
2023-03-05T10:15:13.432Z,10.07
2023-03-05T10:17:55.287Z,4.03
2023-03-05T10:20:34.006Z,4.45
2023-03-05T10:23:04.339Z,7.18
2023-03-05T10:25:49.635Z,2.60
2023-03-05T10:28:21.637Z,3.85
2023-03-05T10:30:51.266Z,2.90
2023-03-05T10:33:23.550Z,6.93
2023-03-05T10:36:08.121Z,6.93
2023-03-05T10:38:51.786Z,3.08
2023-03-05T10:41:27.304Z,3.83
2023-03-05T10:44:11.513Z,3.58
2023-03-05T10:46:39.847Z,1.27
2023-03-05T10:49:29.156Z,5.25
2023-03-05T10:52:01.490Z,4.75
2023-03-05T10:54:30.274Z,2.72
2023-03-05T10:57:18.429Z,3.53
2023-03-05T10:59:54.165Z,3.03
2023-03-05T11:02:22.192Z,2.35
2023-03-05T11:04:50.421Z,3.97
2023-03-05T11:07:16.797Z,2.72
2023-03-05T11:10:04.441Z,1.80
2023-03-05T11:12:32.506Z,2.88
2023-03-05T11:15:04.210Z,4.30
2023-03-05T11:17:37.793Z,11.00
2023-03-05T11:20:37.010Z,3.80
2023-03-05T11:23:24.913Z,2.95
2023-03-05T11:26:12.455Z,2.05
2023-03-05T11:28:41.933Z,4.60
2023-03-05T11:31:08.524Z,7.75
2023-03-05T11:33:37.440Z,2.55
2023-03-05T11:36:20.047Z,2.33
2023-03-05T11:38:52.920Z,4.18
2023-03-05T11:41:26.945Z,3.75
2023-03-05T11:43:54.526Z,4.10
2023-03-05T11:46:22.534Z,5.80
2023-03-05T11:48:50.270Z,2.65
2023-03-05T11:51:25.673Z,3.88
2023-03-05T11:53:57.937Z,3.13
2023-03-05T11:56:28.194Z,3.15
2023-03-05T11:59:19.246Z,4.22
2023-03-05T12:01:49.261Z,4.63
2023-03-05T12:04:17.202Z,2.20
2023-03-05T12:06:52.814Z,7.13
2023-03-05T12:09:41.160Z,5.40
2023-03-05T12:12:28.632Z,5.65
2023-03-05T12:15:05.256Z,4.53
2023-03-05T12:17:47.959Z,4.03
2023-03-05T12:20:35.410Z,3.60
2023-03-05T12:23:02.107Z,3.10
2023-03-05T12:25:33.053Z,3.42
2023-03-05T12:28:00.210Z,4.93
2023-03-05T12:30:35.774Z,2.65
2023-03-05T12:33:04.363Z,6.70
2023-03-05T12:35:37.074Z,3.35
2023-03-05T12:38:26.771Z,5.00
2023-03-05T12:40:53.823Z,3.30
2023-03-05T12:43:32.053Z,2.33
2023-03-05T12:46:38.256Z,3.05
2023-03-05T12:49:28.611Z,2.03
2023-03-05T12:51:57.280Z,1.73
2023-03-05T12:54:34.941Z,2.53
2023-03-05T12:57:06.201Z,2.65
2023-03-05T12:59:43.214Z,3.60
2023-03-05T13:02:32.556Z,1.88
2023-03-05T13:05:02.791Z,7.80
2023-03-05T13:07:29.196Z,2.88
2023-03-05T13:09:57.553Z,2.20
2023-03-05T13:12:26.115Z,1.25
2023-03-05T13:15:02.471Z,1.90
2023-03-05T13:17:51.213Z,6.95
2023-03-05T13:20:23.773Z,2.22
2023-03-05T13:23:05.512Z,1.85
2023-03-05T13:25:31.996Z,2.05
2023-03-05T13:28:07.041Z,1.90
2023-03-05T13:30:34.730Z,4.30
2023-03-05T13:33:04.056Z,1.70
2023-03-05T13:35:44.164Z,2.00
2023-03-05T13:38:24.493Z,2.92
2023-03-05T13:41:04.955Z,3.10
2023-03-05T13:43:31.890Z,3.15
2023-03-05T13:45:59.477Z,3.30
2023-03-05T13:48:27.425Z,2.13
2023-03-05T13:50:56.992Z,3.85
2023-03-05T13:53:26.540Z,2.30
2023-03-05T13:55:57.232Z,4.10
2023-03-05T13:58:50.778Z,3.28
2023-03-05T14:01:28.373Z,1.52
2023-03-05T14:03:58.777Z,3.85
2023-03-05T14:06:28.259Z,3.53
2023-03-05T14:09:02.961Z,1.42
2023-03-05T14:11:30.009Z,2.55
2023-03-05T14:14:05.987Z,1.45
2023-03-05T14:16:33.776Z,2.17
2023-03-05T14:19:02.541Z,1.55
2023-03-05T14:21:48.296Z,5.88
2023-03-05T14:24:22.798Z,2.35
2023-03-05T14:27:05.568Z,1.42
2023-03-05T14:29:32.926Z,1.90
2023-03-05T14:32:21.441Z,4.03
2023-03-05T14:34:54.772Z,2.28
2023-03-05T14:37:23.935Z,3.17
2023-03-05T14:39:59.559Z,3.10
2023-03-05T14:42:39.054Z,4.28
2023-03-05T14:45:18.251Z,5.72
2023-03-05T14:47:45.220Z,3.05
2023-03-05T14:50:23.932Z,4.45
2023-03-05T14:52:53.497Z,4.97
2023-03-05T14:55:24.488Z,4.30
2023-03-05T14:57:53.438Z,3.67
2023-03-05T15:00:28.897Z,2.50
2023-03-05T15:02:55.417Z,2.15
2023-03-05T15:05:22.007Z,2.17
2023-03-05T15:07:49.082Z,1.73
2023-03-05T15:10:18.530Z,2.88
2023-03-05T15:12:45.300Z,2.55
2023-03-05T15:15:14.707Z,4.55
2023-03-05T15:17:43.564Z,2.97
2023-03-05T15:20:21.150Z,2.67
2023-03-05T15:22:47.927Z,4.13
2023-03-05T15:25:14.854Z,3.58
2023-03-05T15:27:41.387Z,3.75
2023-03-05T15:30:24.842Z,3.40
2023-03-05T15:32:52.977Z,3.15
2023-03-05T15:35:19.641Z,2.08
2023-03-05T15:37:46.326Z,4.70
2023-03-05T15:40:13.222Z,3.70
2023-03-05T15:42:40.018Z,3.70
2023-03-05T15:45:07.526Z,3.30
2023-03-05T15:47:33.914Z,4.63
2023-03-05T15:50:00.433Z,2.88
2023-03-05T15:52:27.029Z,4.70
2023-03-05T15:54:53.452Z,5.65
2023-03-05T15:57:23.994Z,4.20
2023-03-05T15:59:50.412Z,4.10
2023-03-05T16:02:16.830Z,5.00
2023-03-05T16:04:43.236Z,5.78
2023-03-05T16:07:10.063Z,4.20
2023-03-05T16:09:41.349Z,3.90
2023-03-05T16:12:12.229Z,3.00
2023-03-05T16:14:40.468Z,3.60
2023-03-05T16:17:07.872Z,3.72
2023-03-05T16:19:36.832Z,2.90
2023-03-05T16:22:03.238Z,4.10
2023-03-05T16:24:29.692Z,4.32
2023-03-05T16:26:56.256Z,4.97
2023-03-05T16:29:22.633Z,2.92
2023-03-05T16:31:49.336Z,4.68
2023-03-05T16:34:16.337Z,4.75
2023-03-05T16:36:52.657Z,6.40
2023-03-05T16:39:20.809Z,5.38
2023-03-05T16:41:48.180Z,8.20
2023-03-05T16:44:14.542Z,8.07
2023-03-05T16:46:41.942Z,8.77
2023-03-05T16:49:11.235Z,6.15
2023-03-05T16:51:42.074Z,8.30
2023-03-05T16:54:10.261Z,9.73
2023-03-05T16:56:37.096Z,9.13
2023-03-05T16:59:04.230Z,8.23
2023-03-05T17:01:31.994Z,7.18
2023-03-05T17:03:59.973Z,14.73
2023-03-05T17:06:29.077Z,15.98
2023-03-05T17:08:56.228Z,12.68
2023-03-05T17:11:23.246Z,11.57
2023-03-05T17:13:49.620Z,13.20
2023-03-05T17:16:18.401Z,9.23
2023-03-05T17:18:45.283Z,9.52
2023-03-05T17:21:13.797Z,13.27
2023-03-05T17:23:40.666Z,13.13
2023-03-05T17:26:10.426Z,11.77
2023-03-05T17:28:37.084Z,12.23
2023-03-05T17:31:04.362Z,11.10
2023-03-05T17:33:36.972Z,15.15
2023-03-05T17:36:04.476Z,9.32
2023-03-05T17:38:31.247Z,10.43
2023-03-05T17:40:57.715Z,14.20
2023-03-05T17:43:25.067Z,11.40
2023-03-05T17:45:51.634Z,17.90
2023-03-05T17:48:20.099Z,10.40
2023-03-05T17:50:46.766Z,12.38
2023-03-05T17:53:13.351Z,11.80
2023-03-05T17:55:41.599Z,12.60
2023-03-05T17:58:08.584Z,13.35
2023-03-05T18:00:35.796Z,11.93
2023-03-05T18:03:03.198Z,10.18
2023-03-05T18:05:29.665Z,10.25
2023-03-05T18:07:56.360Z,8.65
2023-03-05T18:10:25.521Z,11.52
2023-03-05T18:12:57.059Z,15.77
2023-03-05T18:15:26.948Z,11.77
2023-03-05T18:17:53.968Z,9.77
2023-03-05T18:20:33.802Z,9.45
2023-03-05T18:23:01.455Z,13.25
2023-03-05T18:25:31.863Z,12.48
2023-03-05T18:28:03.971Z,11.15
2023-03-05T18:30:32.779Z,12.13
2023-03-05T18:32:59.492Z,16.58
2023-03-05T18:35:27.457Z,11.70
2023-03-05T18:37:53.836Z,16.35
2023-03-05T18:40:22.818Z,16.83
2023-03-05T18:42:49.911Z,15.80
2023-03-05T18:45:18.910Z,16.10
2023-03-05T18:47:46.800Z,14.18
2023-03-05T18:50:16.829Z,19.80
2023-03-05T18:52:43.339Z,11.68
2023-03-05T18:55:42.683Z,12.68
2023-03-05T18:58:09.895Z,12.68
2023-03-05T19:00:38.723Z,12.02
2023-03-05T19:03:05.887Z,8.70
2023-03-05T19:05:33.567Z,10.02
2023-03-05T19:08:00.954Z,7.88
2023-03-05T19:10:28.223Z,10.50
2023-03-05T19:13:15.827Z,13.70
2023-03-05T19:15:46.418Z,14.07
2023-03-05T19:18:13.585Z,9.80
2023-03-05T19:20:40.164Z,13.23
2023-03-05T19:23:06.569Z,11.82
2023-03-05T19:25:33.700Z,8.45
2023-03-05T19:28:01.557Z,10.52
2023-03-05T19:30:28.277Z,11.57
2023-03-05T19:32:54.638Z,10.55
2023-03-05T19:35:21.139Z,12.48
2023-03-05T19:37:47.609Z,9.27
2023-03-05T19:40:14.688Z,8.90
2023-03-05T19:42:42.954Z,10.10
2023-03-05T19:45:09.728Z,9.38
2023-03-05T19:47:36.647Z,11.43
2023-03-05T19:50:05.709Z,10.10
2023-03-05T19:52:32.263Z,12.77
2023-03-05T19:54:59.879Z,11.35
2023-03-05T19:57:26.513Z,10.30
2023-03-05T19:59:53.799Z,9.65
2023-03-05T20:02:21.885Z,25.77
2023-03-05T20:04:49.255Z,12.02
2023-03-05T20:07:17.014Z,12.50
2023-03-05T20:09:44.105Z,10.95
2023-03-05T20:12:10.671Z,11.65
2023-03-05T20:14:38.111Z,13.52
2023-03-05T20:17:04.533Z,8.00
2023-03-05T20:19:31.029Z,9.57
2023-03-05T20:21:58.628Z,13.65
2023-03-05T20:24:25.416Z,10.77
2023-03-05T20:26:52.204Z,10.43
2023-03-05T20:29:19.069Z,9.23
2023-03-05T20:31:47.384Z,12.10
2023-03-05T20:34:18.061Z,11.48
2023-03-05T20:36:45.699Z,12.27
2023-03-05T20:39:12.288Z,11.73
2023-03-05T20:41:40.212Z,10.98
2023-03-05T20:44:08.039Z,12.10
2023-03-05T20:46:37.157Z,9.02
2023-03-05T20:49:04.538Z,11.00
2023-03-05T20:51:37.847Z,8.88
2023-03-05T20:54:10.054Z,10.27
2023-03-05T20:56:37.484Z,9.02
2023-03-05T20:59:08.471Z,10.55
2023-03-05T21:01:38.142Z,12.77
2023-03-05T21:04:05.368Z,8.10
2023-03-05T21:06:33.169Z,9.65
2023-03-05T21:09:00.239Z,15.00
2023-03-05T21:11:27.672Z,12.60
2023-03-05T21:13:54.279Z,11.80
2023-03-05T21:16:27.162Z,14.02
2023-03-05T21:18:55.832Z,14.73
2023-03-05T21:21:22.446Z,13.50
2023-03-05T21:23:48.824Z,12.13
2023-03-05T21:26:15.329Z,14.10
2023-03-05T21:31:22.262Z,14.02
2023-03-05T21:33:49.559Z,15.77
2023-03-05T21:36:19.377Z,11.32
2023-03-05T21:38:49.334Z,13.18
2023-03-05T21:41:17.994Z,13.65
2023-03-05T21:43:44.462Z,12.57
2023-03-05T21:46:11.920Z,10.88
2023-03-05T21:48:38.469Z,14.75
2023-03-05T21:51:08.819Z,14.80
2023-03-05T21:53:35.815Z,15.27
2023-03-05T21:56:18.155Z,13.98
2023-03-05T21:58:44.822Z,16.67
2023-03-05T22:01:12.156Z,15.10
2023-03-05T22:03:38.753Z,17.70
2023-03-05T22:06:09.867Z,14.23
2023-03-05T22:08:36.512Z,19.90
2023-03-05T22:11:08.655Z,13.70
2023-03-05T22:13:37.151Z,20.55
2023-03-05T22:16:04.002Z,17.65
2023-03-05T22:18:32.216Z,15.48
2023-03-05T22:21:00.418Z,14.75
2023-03-05T22:23:30.767Z,19.83
2023-03-05T22:25:57.617Z,20.08
2023-03-05T22:28:24.607Z,17.98
2023-03-05T22:30:51.125Z,17.63
2023-03-05T22:33:17.581Z,17.95
2023-03-05T22:35:44.429Z,19.55
2023-03-05T22:38:11.402Z,17.92
2023-03-05T22:40:41.720Z,17.33
2023-03-05T22:43:08.236Z,17.58
2023-03-05T22:45:34.679Z,17.58
2023-03-05T22:48:01.359Z,16.55
2023-03-05T22:50:27.828Z,18.40
2023-03-05T22:52:54.421Z,18.55
2023-03-05T22:55:21.130Z,21.58
2023-03-05T22:57:47.618Z,25.13
2023-03-05T23:00:21.388Z,16.08
2023-03-05T23:02:47.961Z,18.42
2023-03-05T23:05:14.409Z,20.30
2023-03-05T23:07:42.717Z,15.45
2023-03-05T23:10:11.168Z,16.42
2023-03-05T23:12:41.400Z,19.55
2023-03-05T23:15:11.984Z,19.70
2023-03-05T23:17:38.566Z,18.95
2023-03-05T23:20:08.318Z,17.35
2023-03-05T23:22:36.235Z,18.52
2023-03-05T23:25:02.774Z,19.58
2023-03-05T23:27:29.410Z,17.30
2023-03-05T23:30:16.267Z,19.10
2023-03-05T23:32:47.789Z,21.63
2023-03-05T23:35:17.349Z,19.00
2023-03-05T23:37:43.820Z,19.25
2023-03-05T23:40:14.960Z,19.45
2023-03-05T23:42:42.074Z,20.65
2023-03-05T23:45:10.499Z,19.35
2023-03-05T23:47:37.862Z,17.98
2023-03-05T23:50:08.296Z,17.48
2023-03-05T23:52:35.531Z,24.58
2023-03-05T23:55:02.204Z,20.27
2023-03-05T23:57:28.762Z,17.65
2023-03-05T23:59:55.211Z,18.08
